sensor_id;sensor_type;location;lat;lon;timestamp;pressure;altitude;pressure_sealevel;temperature;humidity
11053;BME280;55230;42.602;23.470;2023-05-21T00:01:36;93437.69;;;13.43;100.00
11053;BME280;55230;42.602;23.470;2023-05-21T00:04:03;93437.50;;;13.47;100.00
11053;BME280;55230;42.602;23.470;2023-05-21T00:06:30;93429.56;;;13.43;100.00
11053;BME280;55230;42.602;23.470;2023-05-21T00:08:56;93423.84;;;13.41;100.00
11053;BME280;55230;42.602;23.470;2023-05-21T00:11:23;93421.78;;;13.36;100.00
11053;BME280;55230;42.602;23.470;2023-05-21T00:13:50;93419.91;;;13.28;100.00
11053;BME280;55230;42.602;23.470;2023-05-21T00:16:16;93416.19;;;13.25;100.00
11053;BME280;55230;42.602;23.470;2023-05-21T00:18:44;93413.94;;;13.24;100.00
11053;BME280;55230;42.602;23.470;2023-05-21T00:21:11;93409.16;;;13.19;100.00
11053;BME280;55230;42.602;23.470;2023-05-21T00:23:38;93412.81;;;13.16;100.00
11053;BME280;55230;42.602;23.470;2023-05-21T00:26:06;93413.16;;;13.09;100.00
11053;BME280;55230;42.602;23.470;2023-05-21T00:28:33;93410.16;;;13.07;100.00
11053;BME280;55230;42.602;23.470;2023-05-21T00:30:59;93406.59;;;13.01;100.00
11053;BME280;55230;42.602;23.470;2023-05-21T00:33:26;93410.25;;;12.98;100.00
11053;BME280;55230;42.602;23.470;2023-05-21T00:35:54;93407.41;;;12.92;100.00
11053;BME280;55230;42.602;23.470;2023-05-21T00:38:21;93403.19;;;12.91;100.00
11053;BME280;55230;42.602;23.470;2023-05-21T00:40:48;93397.06;;;12.91;100.00
11053;BME280;55230;42.602;23.470;2023-05-21T00:43:15;93395.72;;;12.86;100.00
11053;BME280;55230;42.602;23.470;2023-05-21T00:45:41;93395.44;;;12.84;100.00
11053;BME280;55230;42.602;23.470;2023-05-21T00:48:08;93387.66;;;12.77;100.00
11053;BME280;55230;42.602;23.470;2023-05-21T00:50:35;93393.38;;;12.79;100.00
11053;BME280;55230;42.602;23.470;2023-05-21T00:53:05;93399.25;;;12.77;100.00
11053;BME280;55230;42.602;23.470;2023-05-21T00:55:33;93397.59;;;12.80;100.00
11053;BME280;55230;42.602;23.470;2023-05-21T00:58:00;93397.41;;;12.84;100.00
11053;BME280;55230;42.602;23.470;2023-05-21T01:00:28;93394.06;;;12.89;100.00
11053;BME280;55230;42.602;23.470;2023-05-21T01:02:55;93381.38;;;12.95;100.00
11053;BME280;55230;42.602;23.470;2023-05-21T01:05:22;93378.63;;;13.04;100.00
11053;BME280;55230;42.602;23.470;2023-05-21T01:07:48;93384.91;;;13.10;100.00
11053;BME280;55230;42.602;23.470;2023-05-21T01:10:16;93386.66;;;13.13;100.00
11053;BME280;55230;42.602;23.470;2023-05-21T01:12:43;93386.31;;;13.20;100.00
11053;BME280;55230;42.602;23.470;2023-05-21T01:15:10;93386.38;;;13.11;100.00
11053;BME280;55230;42.602;23.470;2023-05-21T01:17:37;93379.13;;;12.93;100.00
11053;BME280;55230;42.602;23.470;2023-05-21T01:20:04;93373.59;;;12.88;100.00
11053;BME280;55230;42.602;23.470;2023-05-21T01:22:34;93386.59;;;12.98;100.00
11053;BME280;55230;42.602;23.470;2023-05-21T01:25:02;93377.88;;;13.03;100.00
11053;BME280;55230;42.602;23.470;2023-05-21T01:27:29;93377.69;;;13.07;100.00
11053;BME280;55230;42.602;23.470;2023-05-21T01:29:55;93373.78;;;13.08;100.00
11053;BME280;55230;42.602;23.470;2023-05-21T01:32:23;93373.78;;;13.08;100.00
11053;BME280;55230;42.602;23.470;2023-05-21T01:34:54;93371.53;;;13.06;100.00
11053;BME280;55230;42.602;23.470;2023-05-21T01:37:22;93363.78;;;12.75;100.00
11053;BME280;55230;42.602;23.470;2023-05-21T01:39:52;93362.06;;;12.63;100.00
11053;BME280;55230;42.602;23.470;2023-05-21T01:42:22;93365.28;;;12.76;100.00
11053;BME280;55230;42.602;23.470;2023-05-21T01:44:50;93366.91;;;12.83;100.00
11053;BME280;55230;42.602;23.470;2023-05-21T01:47:17;93371.38;;;12.86;100.00
11053;BME280;55230;42.602;23.470;2023-05-21T01:49:44;93365.78;;;12.90;100.00
11053;BME280;55230;42.602;23.470;2023-05-21T01:52:10;93365.84;;;12.80;100.00
11053;BME280;55230;42.602;23.470;2023-05-21T01:54:37;93364.38;;;12.79;100.00
11053;BME280;55230;42.602;23.470;2023-05-21T01:57:03;93357.66;;;12.75;100.00
11053;BME280;55230;42.602;23.470;2023-05-21T01:59:32;93364.13;;;12.68;100.00
11053;BME280;55230;42.602;23.470;2023-05-21T02:01:58;93370.78;;;12.67;100.00
11053;BME280;55230;42.602;23.470;2023-05-21T02:04:25;93362.25;;;12.60;100.00
11053;BME280;55230;42.602;23.470;2023-05-21T02:06:51;93357.66;;;12.51;100.00
11053;BME280;55230;42.602;23.470;2023-05-21T02:09:18;93357.34;;;12.35;100.00
11053;BME280;55230;42.602;23.470;2023-05-21T02:11:45;93356.28;;;12.32;100.00
11053;BME280;55230;42.602;23.470;2023-05-21T02:14:11;93353.94;;;12.25;100.00
11053;BME280;55230;42.602;23.470;2023-05-21T02:16:40;93356.63;;;12.25;100.00
11053;BME280;55230;42.602;23.470;2023-05-21T02:19:07;93356.63;;;12.25;100.00
11053;BME280;55230;42.602;23.470;2023-05-21T02:21:34;93354.97;;;12.28;100.00
11053;BME280;55230;42.602;23.470;2023-05-21T02:24:01;93356.91;;;12.27;100.00
11053;BME280;55230;42.602;23.470;2023-05-21T02:26:27;93350.63;;;12.30;100.00
11053;BME280;55230;42.602;23.470;2023-05-21T02:28:54;93352.28;;;12.28;100.00
11053;BME280;55230;42.602;23.470;2023-05-21T02:31:20;93346.81;;;12.37;100.00
11053;BME280;55230;42.602;23.470;2023-05-21T02:33:48;93345.59;;;12.38;100.00
11053;BME280;55230;42.602;23.470;2023-05-21T02:36:15;93348.41;;;12.43;100.00
11053;BME280;55230;42.602;23.470;2023-05-21T02:38:43;93343.28;;;12.45;100.00
11053;BME280;55230;42.602;23.470;2023-05-21T02:41:09;93349.72;;;12.48;100.00
11053;BME280;55230;42.602;23.470;2023-05-21T02:43:36;93352.53;;;12.53;100.00
11053;BME280;55230;42.602;23.470;2023-05-21T02:46:04;93346.19;;;12.56;100.00
11053;BME280;55230;42.602;23.470;2023-05-21T02:48:31;93350.06;;;12.64;100.00
11053;BME280;55230;42.602;23.470;2023-05-21T02:50:59;93354.84;;;12.69;100.00
11053;BME280;55230;42.602;23.470;2023-05-21T02:53:25;93351.47;;;12.74;100.00
11053;BME280;55230;42.602;23.470;2023-05-21T02:55:51;93349.72;;;12.86;100.00
11053;BME280;55230;42.602;23.470;2023-05-21T02:58:18;93351.06;;;12.91;100.00
11053;BME280;55230;42.602;23.470;2023-05-21T03:00:47;93343.94;;;12.93;100.00
11053;BME280;55230;42.602;23.470;2023-05-21T03:03:14;93348.72;;;12.98;100.00
11053;BME280;55230;42.602;23.470;2023-05-21T03:05:40;93344.66;;;13.03;100.00
11053;BME280;55230;42.602;23.470;2023-05-21T03:08:08;93348.94;;;13.09;100.00
11053;BME280;55230;42.602;23.470;2023-05-21T03:10:35;93351.19;;;13.11;100.00
11053;BME280;55230;42.602;23.470;2023-05-21T03:13:01;93359.59;;;13.13;100.00
11053;BME280;55230;42.602;23.470;2023-05-21T03:15:29;93357.00;;;13.18;100.00
11053;BME280;55230;42.602;23.470;2023-05-21T03:17:57;93356.53;;;13.20;100.00
11053;BME280;55230;42.602;23.470;2023-05-21T03:20:24;93364.28;;;13.27;100.00
11053;BME280;55230;42.602;23.470;2023-05-21T03:22:52;93362.59;;;13.29;100.00
11053;BME280;55230;42.602;23.470;2023-05-21T03:25:20;93362.41;;;13.33;100.00
11053;BME280;55230;42.602;23.470;2023-05-21T03:27:49;93354.56;;;13.35;100.00
11053;BME280;55230;42.602;23.470;2023-05-21T03:30:15;93363.91;;;13.34;100.00
11053;BME280;55230;42.602;23.470;2023-05-21T03:32:42;93361.19;;;13.34;100.00
11053;BME280;55230;42.602;23.470;2023-05-21T03:35:09;93365.78;;;13.42;100.00
11053;BME280;55230;42.602;23.470;2023-05-21T03:37:35;93369.59;;;13.50;100.00
11053;BME280;55230;42.602;23.470;2023-05-21T03:40:02;93372.13;;;13.54;100.00
11053;BME280;55230;42.602;23.470;2023-05-21T03:42:31;93371.16;;;13.57;100.00
11053;BME280;55230;42.602;23.470;2023-05-21T03:44:58;93365.56;;;13.60;99.02
11053;BME280;55230;42.602;23.470;2023-05-21T03:47:24;93369.59;;;13.65;99.18
11053;BME280;55230;42.602;23.470;2023-05-21T03:49:51;93369.19;;;13.72;98.72
11053;BME280;55230;42.602;23.470;2023-05-21T03:52:17;93365.00;;;13.71;98.29
11053;BME280;55230;42.602;23.470;2023-05-21T03:54:44;93363.31;;;13.73;98.14
11053;BME280;55230;42.602;23.470;2023-05-21T03:57:10;93361.16;;;13.77;98.17
11053;BME280;55230;42.602;23.470;2023-05-21T03:59:38;93361.53;;;13.85;98.47
11053;BME280;55230;42.602;23.470;2023-05-21T04:02:05;93364.78;;;13.89;97.78
11053;BME280;55230;42.602;23.470;2023-05-21T04:04:31;93364.41;;;13.81;93.85
11053;BME280;55230;42.602;23.470;2023-05-21T04:06:58;93364.13;;;13.94;94.97
11053;BME280;55230;42.602;23.470;2023-05-21T04:09:25;93371.13;;;14.01;95.61
11053;BME280;55230;42.602;23.470;2023-05-21T04:11:51;93366.97;;;14.05;95.24
11053;BME280;55230;42.602;23.470;2023-05-21T04:14:18;93367.81;;;14.11;95.28
11053;BME280;55230;42.602;23.470;2023-05-21T04:16:46;93374.06;;;14.17;95.04
11053;BME280;55230;42.602;23.470;2023-05-21T04:19:13;93367.47;;;14.24;94.45
11053;BME280;55230;42.602;23.470;2023-05-21T04:21:40;93373.50;;;14.28;95.17
11053;BME280;55230;42.602;23.470;2023-05-21T04:24:09;93358.78;;;14.34;94.07
11053;BME280;55230;42.602;23.470;2023-05-21T04:26:35;93373.47;;;14.42;93.56
11053;BME280;55230;42.602;23.470;2023-05-21T04:29:02;93368.16;;;14.53;92.71
11053;BME280;55230;42.602;23.470;2023-05-21T04:31:29;93370.75;;;14.62;92.50
11053;BME280;55230;42.602;23.470;2023-05-21T04:33:57;93374.28;;;14.68;91.63
11053;BME280;55230;42.602;23.470;2023-05-21T04:36:24;93377.38;;;14.81;90.32
11053;BME280;55230;42.602;23.470;2023-05-21T04:38:53;93372.63;;;14.96;89.99
11053;BME280;55230;42.602;23.470;2023-05-21T04:41:19;93373.94;;;15.06;89.39
11053;BME280;55230;42.602;23.470;2023-05-21T04:43:46;93374.16;;;15.23;89.05
11053;BME280;55230;42.602;23.470;2023-05-21T04:46:12;93378.25;;;15.39;88.39
11053;BME280;55230;42.602;23.470;2023-05-21T04:48:39;93377.16;;;15.51;88.15
11053;BME280;55230;42.602;23.470;2023-05-21T04:51:07;93382.25;;;15.69;87.26
11053;BME280;55230;42.602;23.470;2023-05-21T04:53:34;93377.44;;;15.84;87.12
11053;BME280;55230;42.602;23.470;2023-05-21T04:56:00;93378.03;;;15.99;85.90
11053;BME280;55230;42.602;23.470;2023-05-21T04:58:28;93386.56;;;16.17;84.53
11053;BME280;55230;42.602;23.470;2023-05-21T05:00:56;93380.72;;;16.30;83.31
11053;BME280;55230;42.602;23.470;2023-05-21T05:03:27;93377.09;;;16.44;82.46
11053;BME280;55230;42.602;23.470;2023-05-21T05:05:53;93379.91;;;16.55;80.18
11053;BME280;55230;42.602;23.470;2023-05-21T05:08:21;93381.78;;;16.86;80.11
11053;BME280;55230;42.602;23.470;2023-05-21T05:10:47;93380.13;;;17.10;78.50
11053;BME280;55230;42.602;23.470;2023-05-21T05:13:14;93377.72;;;17.40;75.84
11053;BME280;55230;42.602;23.470;2023-05-21T05:15:40;93374.81;;;17.55;74.09
11053;BME280;55230;42.602;23.470;2023-05-21T05:18:07;93378.31;;;17.77;69.71
11053;BME280;55230;42.602;23.470;2023-05-21T05:20:33;93382.06;;;17.96;69.54
11053;BME280;55230;42.602;23.470;2023-05-21T05:23:00;93380.00;;;18.58;65.79
11053;BME280;55230;42.602;23.470;2023-05-21T05:25:28;93379.13;;;18.96;60.59
11053;BME280;55230;42.602;23.470;2023-05-21T05:27:54;93382.56;;;19.07;60.27
11053;BME280;55230;42.602;23.470;2023-05-21T05:30:21;93383.47;;;19.26;58.76
11053;BME280;55230;42.602;23.470;2023-05-21T05:32:47;93378.78;;;19.16;58.16
11053;BME280;55230;42.602;23.470;2023-05-21T05:35:14;93379.78;;;19.18;57.47
11053;BME280;55230;42.602;23.470;2023-05-21T05:37:40;93377.78;;;18.56;60.19
11053;BME280;55230;42.602;23.470;2023-05-21T05:40:07;93379.28;;;18.46;58.44
11053;BME280;55230;42.602;23.470;2023-05-21T05:42:35;93377.28;;;18.52;61.43
11053;BME280;55230;42.602;23.470;2023-05-21T05:45:02;93367.91;;;17.98;63.47
11053;BME280;55230;42.602;23.470;2023-05-21T05:47:29;93370.13;;;17.88;64.53
11053;BME280;55230;42.602;23.470;2023-05-21T05:49:55;93365.16;;;18.25;65.69
11053;BME280;55230;42.602;23.470;2023-05-21T05:52:22;93363.59;;;18.63;64.60
11053;BME280;55230;42.602;23.470;2023-05-21T05:54:48;93366.00;;;18.89;61.85
11053;BME280;55230;42.602;23.470;2023-05-21T05:57:15;93364.94;;;19.08;60.96
11053;BME280;55230;42.602;23.470;2023-05-21T05:59:43;93374.38;;;19.02;58.02
11053;BME280;55230;42.602;23.470;2023-05-21T06:02:09;93367.16;;;19.56;60.15
11053;BME280;55230;42.602;23.470;2023-05-21T06:04:36;93380.28;;;19.69;54.03
11053;BME280;55230;42.602;23.470;2023-05-21T06:07:02;93362.72;;;19.53;54.83
11053;BME280;55230;42.602;23.470;2023-05-21T06:09:29;93363.16;;;19.98;56.17
11053;BME280;55230;42.602;23.470;2023-05-21T06:11:55;93365.44;;;20.23;55.96
11053;BME280;55230;42.602;23.470;2023-05-21T06:14:22;93361.44;;;19.60;55.48
11053;BME280;55230;42.602;23.470;2023-05-21T06:16:50;93363.41;;;18.22;61.86
11053;BME280;55230;42.602;23.470;2023-05-21T06:19:16;93359.44;;;18.23;65.10
11053;BME280;55230;42.602;23.470;2023-05-21T06:21:43;93353.69;;;18.60;57.65
11053;BME280;55230;42.602;23.470;2023-05-21T06:24:09;93355.69;;;18.43;58.25
11053;BME280;55230;42.602;23.470;2023-05-21T06:26:36;93351.25;;;18.40;64.52
11053;BME280;55230;42.602;23.470;2023-05-21T06:29:03;93357.44;;;18.46;62.55
11053;BME280;55230;42.602;23.470;2023-05-21T06:31:30;93353.50;;;18.08;61.09
11053;BME280;55230;42.602;23.470;2023-05-21T06:33:58;93354.00;;;17.96;61.73
11053;BME280;55230;42.602;23.470;2023-05-21T06:36:25;93351.94;;;18.57;61.06
11053;BME280;55230;42.602;23.470;2023-05-21T06:38:54;93343.13;;;18.92;59.87
11053;BME280;55230;42.602;23.470;2023-05-21T06:41:20;93342.06;;;18.26;60.31
11053;BME280;55230;42.602;23.470;2023-05-21T06:43:49;93347.16;;;18.74;60.48
11053;BME280;55230;42.602;23.470;2023-05-21T06:46:15;93342.22;;;19.30;56.92
11053;BME280;55230;42.602;23.470;2023-05-21T06:48:42;93345.81;;;19.54;55.14
11053;BME280;55230;42.602;23.470;2023-05-21T06:51:10;93345.09;;;19.84;54.66
11053;BME280;55230;42.602;23.470;2023-05-21T06:53:37;93353.13;;;20.06;50.22
11053;BME280;55230;42.602;23.470;2023-05-21T06:56:03;93348.91;;;19.70;54.72
11053;BME280;55230;42.602;23.470;2023-05-21T06:58:30;93348.09;;;20.10;52.02
11053;BME280;55230;42.602;23.470;2023-05-21T07:00:56;93341.94;;;20.04;54.05
11053;BME280;55230;42.602;23.470;2023-05-21T07:03:23;93354.16;;;19.68;53.80
11053;BME280;55230;42.602;23.470;2023-05-21T07:05:49;93345.78;;;19.60;54.90
11053;BME280;55230;42.602;23.470;2023-05-21T07:08:17;93347.03;;;20.24;52.69
11053;BME280;55230;42.602;23.470;2023-05-21T07:10:45;93345.38;;;20.63;53.11
11053;BME280;55230;42.602;23.470;2023-05-21T07:13:11;93342.97;;;19.66;55.51
11053;BME280;55230;42.602;23.470;2023-05-21T07:15:37;93333.31;;;19.18;56.45
11053;BME280;55230;42.602;23.470;2023-05-21T07:18:04;93339.47;;;19.71;55.09
11053;BME280;55230;42.602;23.470;2023-05-21T07:20:30;93345.38;;;20.10;56.19
11053;BME280;55230;42.602;23.470;2023-05-21T07:22:57;93348.75;;;20.51;51.96
11053;BME280;55230;42.602;23.470;2023-05-21T07:25:25;93350.53;;;21.15;52.09
11053;BME280;55230;42.602;23.470;2023-05-21T07:27:51;93343.03;;;21.34;51.77
11053;BME280;55230;42.602;23.470;2023-05-21T07:30:18;93349.06;;;21.33;47.84
11053;BME280;55230;42.602;23.470;2023-05-21T07:32:44;93348.75;;;21.55;49.37
11053;BME280;55230;42.602;23.470;2023-05-21T07:35:11;93344.56;;;21.67;47.76
11053;BME280;55230;42.602;23.470;2023-05-21T07:37:37;93346.97;;;21.20;50.76
11053;BME280;55230;42.602;23.470;2023-05-21T07:40:05;93345.84;;;21.47;49.75
11053;BME280;55230;42.602;23.470;2023-05-21T07:42:33;93350.72;;;21.54;49.55
11053;BME280;55230;42.602;23.470;2023-05-21T07:45:00;93355.41;;;21.59;48.20
11053;BME280;55230;42.602;23.470;2023-05-21T07:47:26;93361.13;;;21.24;47.06
11053;BME280;55230;42.602;23.470;2023-05-21T07:49:53;93357.41;;;20.31;50.93
11053;BME280;55230;42.602;23.470;2023-05-21T07:52:19;93349.47;;;20.27;50.48
11053;BME280;55230;42.602;23.470;2023-05-21T07:54:46;93351.56;;;19.86;51.45
11053;BME280;55230;42.602;23.470;2023-05-21T07:57:12;93345.13;;;20.08;52.97
11053;BME280;55230;42.602;23.470;2023-05-21T07:59:40;93343.22;;;19.32;52.69
11053;BME280;55230;42.602;23.470;2023-05-21T08:02:14;93337.53;;;19.14;53.22
11053;BME280;55230;42.602;23.470;2023-05-21T08:04:41;93339.88;;;18.99;56.14
11053;BME280;55230;42.602;23.470;2023-05-21T08:07:08;93332.69;;;19.42;56.01
11053;BME280;55230;42.602;23.470;2023-05-21T08:09:35;93336.34;;;20.20;51.24
11053;BME280;55230;42.602;23.470;2023-05-21T08:12:01;93334.66;;;20.65;48.25
11053;BME280;55230;42.602;23.470;2023-05-21T08:14:30;93335.34;;;20.90;48.92
11053;BME280;55230;42.602;23.470;2023-05-21T08:16:58;93334.66;;;21.08;45.87
11053;BME280;55230;42.602;23.470;2023-05-21T08:19:25;93343.25;;;20.99;47.28
11053;BME280;55230;42.602;23.470;2023-05-21T08:21:54;93338.34;;;20.68;46.54
11053;BME280;55230;42.602;23.470;2023-05-21T08:24:24;93345.19;;;20.02;49.13
11053;BME280;55230;42.602;23.470;2023-05-21T08:26:50;93339.75;;;20.26;49.05
11053;BME280;55230;42.602;23.470;2023-05-21T08:29:17;93337.09;;;20.69;50.07
11053;BME280;55230;42.602;23.470;2023-05-21T08:31:43;93344.50;;;20.98;48.84
11053;BME280;55230;42.602;23.470;2023-05-21T08:34:11;93345.97;;;20.99;47.55
11053;BME280;55230;42.602;23.470;2023-05-21T08:36:38;93349.28;;;20.92;48.40
11053;BME280;55230;42.602;23.470;2023-05-21T08:39:07;93347.06;;;20.91;47.34
11053;BME280;55230;42.602;23.470;2023-05-21T08:41:34;93342.66;;;21.06;49.92
11053;BME280;55230;42.602;23.470;2023-05-21T08:44:00;93344.00;;;21.18;47.10
11053;BME280;55230;42.602;23.470;2023-05-21T08:46:28;93335.22;;;21.75;48.22
11053;BME280;55230;42.602;23.470;2023-05-21T08:48:57;93324.66;;;21.98;43.63
11053;BME280;55230;42.602;23.470;2023-05-21T08:51:25;93339.72;;;20.56;44.29
11053;BME280;55230;42.602;23.470;2023-05-21T08:53:52;93342.91;;;20.60;43.05
11053;BME280;55230;42.602;23.470;2023-05-21T08:56:30;93340.41;;;20.38;43.73
11053;BME280;55230;42.602;23.470;2023-05-21T08:59:00;93343.34;;;20.88;46.00
11053;BME280;55230;42.602;23.470;2023-05-21T09:01:30;93344.88;;;21.08;46.38
11053;BME280;55230;42.602;23.470;2023-05-21T09:03:58;93354.50;;;21.14;43.90
11053;BME280;55230;42.602;23.470;2023-05-21T09:06:27;93358.03;;;20.91;41.64
11053;BME280;55230;42.602;23.470;2023-05-21T09:08:58;93357.72;;;20.94;42.61
11053;BME280;55230;42.602;23.470;2023-05-21T09:11:29;93353.13;;;20.84;42.10
11053;BME280;55230;42.602;23.470;2023-05-21T09:13:55;93356.19;;;20.99;43.17
11053;BME280;55230;42.602;23.470;2023-05-21T09:16:23;93340.44;;;21.05;41.02
11053;BME280;55230;42.602;23.470;2023-05-21T09:18:49;93354.22;;;20.99;39.76
11053;BME280;55230;42.602;23.470;2023-05-21T09:21:22;93346.97;;;21.02;42.62
11053;BME280;55230;42.602;23.470;2023-05-21T09:23:53;93341.63;;;21.09;41.54
11053;BME280;55230;42.602;23.470;2023-05-21T09:26:20;93331.69;;;21.06;41.55
11053;BME280;55230;42.602;23.470;2023-05-21T09:28:47;93343.47;;;21.01;38.77
11053;BME280;55230;42.602;23.470;2023-05-21T09:31:16;93333.88;;;20.89;41.34
11053;BME280;55230;42.602;23.470;2023-05-21T09:33:46;93337.91;;;21.07;39.59
11053;BME280;55230;42.602;23.470;2023-05-21T09:36:13;93333.06;;;20.94;38.80
11053;BME280;55230;42.602;23.470;2023-05-21T09:38:39;93332.00;;;20.97;39.66
11053;BME280;55230;42.602;23.470;2023-05-21T09:41:32;93332.72;;;21.03;39.93
11053;BME280;55230;42.602;23.470;2023-05-21T09:47:19;93333.28;;;20.96;39.49
11053;BME280;55230;42.602;23.470;2023-05-21T09:50:30;93328.34;;;21.32;38.51
11053;BME280;55230;42.602;23.470;2023-05-21T09:56:25;93312.31;;;21.54;39.00
11053;BME280;55230;42.602;23.470;2023-05-21T10:14:07;93310.41;;;20.69;37.46
11053;BME280;55230;42.602;23.470;2023-05-21T10:16:35;93301.88;;;21.16;38.38
11053;BME280;55230;42.602;23.470;2023-05-21T10:19:05;93305.56;;;20.81;40.14
11053;BME280;55230;42.602;23.470;2023-05-21T10:21:35;93307.19;;;20.23;39.98
11053;BME280;55230;42.602;23.470;2023-05-21T10:24:04;93296.34;;;20.12;41.02
11053;BME280;55230;42.602;23.470;2023-05-21T10:26:32;93300.28;;;20.40;40.77
11053;BME280;55230;42.602;23.470;2023-05-21T10:28:58;93298.91;;;20.28;40.32
11053;BME280;55230;42.602;23.470;2023-05-21T10:31:26;93293.50;;;19.93;42.24
11053;BME280;55230;42.602;23.470;2023-05-21T10:33:53;93286.97;;;19.72;42.44
11053;BME280;55230;42.602;23.470;2023-05-21T10:36:20;93296.41;;;19.41;42.08
11053;BME280;55230;42.602;23.470;2023-05-21T10:38:47;93292.59;;;19.50;43.32
11053;BME280;55230;42.602;23.470;2023-05-21T10:41:13;93293.94;;;19.73;42.66
11053;BME280;55230;42.602;23.470;2023-05-21T10:43:44;93293.44;;;19.39;43.62
11053;BME280;55230;42.602;23.470;2023-05-21T10:46:26;93289.31;;;19.57;43.16
11053;BME280;55230;42.602;23.470;2023-05-21T10:49:06;93292.66;;;19.44;44.11
11053;BME280;55230;42.602;23.470;2023-05-21T10:51:40;93294.44;;;19.36;45.12
11053;BME280;55230;42.602;23.470;2023-05-21T10:56:58;93293.28;;;19.62;45.40
11053;BME280;55230;42.602;23.470;2023-05-21T10:59:32;93292.38;;;19.78;44.38
11053;BME280;55230;42.602;23.470;2023-05-21T11:02:01;93290.34;;;19.84;45.61
11053;BME280;55230;42.602;23.470;2023-05-21T11:04:30;93290.66;;;20.34;46.54
11053;BME280;55230;42.602;23.470;2023-05-21T11:06:59;93281.03;;;20.70;42.56
11053;BME280;55230;42.602;23.470;2023-05-21T11:09:25;93277.13;;;21.21;40.59
11053;BME280;55230;42.602;23.470;2023-05-21T11:11:53;93273.44;;;21.00;40.73
11053;BME280;55230;42.602;23.470;2023-05-21T11:14:29;93263.53;;;20.92;41.31
11053;BME280;55230;42.602;23.470;2023-05-21T11:16:59;93272.56;;;20.68;43.08
11053;BME280;55230;42.602;23.470;2023-05-21T11:19:36;93263.91;;;20.64;42.17
11053;BME280;55230;42.602;23.470;2023-05-21T11:22:04;93263.28;;;20.34;42.62
11053;BME280;55230;42.602;23.470;2023-05-21T11:24:31;93264.63;;;20.46;42.46
11053;BME280;55230;42.602;23.470;2023-05-21T11:27:01;93266.47;;;20.38;42.83
11053;BME280;55230;42.602;23.470;2023-05-21T11:29:35;93266.09;;;20.47;41.51
11053;BME280;55230;42.602;23.470;2023-05-21T11:32:05;93266.25;;;20.54;40.55
11053;BME280;55230;42.602;23.470;2023-05-21T11:34:36;93267.31;;;20.51;41.42
11053;BME280;55230;42.602;23.470;2023-05-21T11:39:50;93263.94;;;20.16;42.91
11053;BME280;55230;42.602;23.470;2023-05-21T11:42:26;93268.31;;;20.00;41.57
11053;BME280;55230;42.602;23.470;2023-05-21T11:44:53;93264.94;;;20.13;42.55
11053;BME280;55230;42.602;23.470;2023-05-21T11:47:21;93265.59;;;20.24;42.58
11053;BME280;55230;42.602;23.470;2023-05-21T11:49:50;93254.31;;;20.33;41.00
11053;BME280;55230;42.602;23.470;2023-05-21T11:52:16;93262.81;;;20.30;41.70
11053;BME280;55230;42.602;23.470;2023-05-21T11:54:44;93258.03;;;20.36;42.81
11053;BME280;55230;42.602;23.470;2023-05-21T11:57:12;93263.13;;;20.45;42.40
11053;BME280;55230;42.602;23.470;2023-05-21T11:59:40;93256.09;;;20.31;41.53
11053;BME280;55230;42.602;23.470;2023-05-21T12:02:07;93251.84;;;20.30;42.54
11053;BME280;55230;42.602;23.470;2023-05-21T12:04:34;93258.97;;;20.38;41.87
11053;BME280;55230;42.602;23.470;2023-05-21T12:07:03;93254.81;;;20.32;42.72
11053;BME280;55230;42.602;23.470;2023-05-21T12:09:37;93255.13;;;19.99;42.73
11053;BME280;55230;42.602;23.470;2023-05-21T12:12:03;93247.84;;;20.07;43.17
11053;BME280;55230;42.602;23.470;2023-05-21T12:14:30;93251.25;;;20.13;42.81
11053;BME280;55230;42.602;23.470;2023-05-21T12:16:57;93245.53;;;20.16;44.39
11053;BME280;55230;42.602;23.470;2023-05-21T12:19:23;93248.44;;;20.24;42.96
11053;BME280;55230;42.602;23.470;2023-05-21T12:21:50;93246.13;;;20.28;43.45
11053;BME280;55230;42.602;23.470;2023-05-21T12:24:18;93248.75;;;20.39;43.71
11053;BME280;55230;42.602;23.470;2023-05-21T12:26:45;93254.41;;;20.46;43.72
11053;BME280;55230;42.602;23.470;2023-05-21T12:29:12;93248.75;;;20.39;43.75
11053;BME280;55230;42.602;23.470;2023-05-21T12:31:45;93245.00;;;20.42;44.49
11053;BME280;55230;42.602;23.470;2023-05-21T12:34:12;93244.19;;;20.47;43.58
11053;BME280;55230;42.602;23.470;2023-05-21T12:36:39;93240.72;;;20.65;44.21
11053;BME280;55230;42.602;23.470;2023-05-21T12:39:10;93236.94;;;20.87;43.33
11053;BME280;55230;42.602;23.470;2023-05-21T12:41:38;93227.91;;;20.92;42.16
11053;BME280;55230;42.602;23.470;2023-05-21T12:44:04;93231.50;;;21.05;41.42
11053;BME280;55230;42.602;23.470;2023-05-21T12:46:32;93228.66;;;21.29;41.46
11053;BME280;55230;42.602;23.470;2023-05-21T12:48:59;93232.84;;;21.17;41.53
11053;BME280;55230;42.602;23.470;2023-05-21T12:51:35;93224.22;;;20.89;41.09
11053;BME280;55230;42.602;23.470;2023-05-21T12:54:02;93228.81;;;20.81;43.03
11053;BME280;55230;42.602;23.470;2023-05-21T12:56:28;93231.81;;;21.02;42.13
11053;BME280;55230;42.602;23.470;2023-05-21T12:59:12;93227.84;;;20.60;43.06
11053;BME280;55230;42.602;23.470;2023-05-21T13:01:40;93224.66;;;20.56;42.51
11053;BME280;55230;42.602;23.470;2023-05-21T13:04:07;93221.56;;;21.02;43.42
11053;BME280;55230;42.602;23.470;2023-05-21T13:06:40;93221.97;;;21.25;43.19
11053;BME280;55230;42.602;23.470;2023-05-21T13:09:07;93214.00;;;21.40;42.32
11053;BME280;55230;42.602;23.470;2023-05-21T13:11:33;93214.22;;;21.42;41.68
11053;BME280;55230;42.602;23.470;2023-05-21T13:14:00;93217.25;;;20.88;40.91
11053;BME280;55230;42.602;23.470;2023-05-21T13:16:27;93213.56;;;20.67;39.65
11053;BME280;55230;42.602;23.470;2023-05-21T13:18:54;93218.44;;;20.93;43.10